Time;durP1;ratioP1;P1;durP2;ratioP2;P2;SDS_P1;SDS_P2;PMS_P1;PMS_P2;Temp;Humidity;BMP_temperature;BMP_pressure;BME280_temperature;BME280_humidity;BME280_pressure;Samples;Min_cycle;Max_cycle;Signal;HPM_P1;HPM_P2
2022/05/29 00:01:57;;;;;;;3.67;1.25;;;11.60;92.00;;;;;;5051227;28;20045;-56
2022/05/29 00:04:24;;;;;;;6.30;1.10;;;11.50;92.10;;;;;;5050826;28;20049;-58
2022/05/29 00:06:53;;;;;;;3.97;0.93;;;11.40;92.30;;;;;;5050971;28;20450;-56
2022/05/29 00:09:25;;;;;;;1.70;0.70;;;11.40;92.40;;;;;;5082558;28;20144;-58
2022/05/29 00:11:52;;;;;;;3.65;1.00;;;11.50;92.40;;;;;;5082336;28;20054;-59
2022/05/29 00:14:19;;;;;;;2.88;0.65;;;11.40;92.30;;;;;;5049076;28;20456;-60
2022/05/29 00:16:46;;;;;;;3.15;0.90;;;11.40;92.20;;;;;;5050933;28;20045;-58
2022/05/29 00:19:13;;;;;;;1.92;0.93;;;11.40;92.50;;;;;;5050551;28;20045;-56
2022/05/29 00:21:40;;;;;;;2.92;1.90;;;11.40;92.60;;;;;;5050768;28;20045;-56
2022/05/29 00:24:06;;;;;;;2.35;0.70;;;11.40;92.70;;;;;;5081890;28;20106;-58
2022/05/29 00:26:33;;;;;;;1.85;0.60;;;11.30;92.60;;;;;;5082478;28;20488;-58
2022/05/29 00:29:00;;;;;;;2.15;0.80;;;11.30;92.60;;;;;;5050240;28;20053;-55
2022/05/29 00:31:27;;;;;;;2.00;0.70;;;11.30;92.70;;;;;;5050625;28;20551;-57
2022/05/29 00:33:54;;;;;;;4.93;1.55;;;11.30;92.60;;;;;;5082241;28;20041;-57
2022/05/29 00:36:21;;;;;;;4.55;0.80;;;11.30;92.60;;;;;;5050586;28;20087;-53
2022/05/29 00:38:48;;;;;;;2.15;0.80;;;11.30;92.50;;;;;;5050110;28;20559;-56
2022/05/29 00:41:31;;;;;;;1.95;0.68;;;11.30;92.60;;;;;;5082290;28;20129;-62
2022/05/29 00:44:13;;;;;;;3.13;0.97;;;11.30;93.30;;;;;;5048426;28;20052;-58
2022/05/29 00:46:51;;;;;;;2.95;0.68;;;11.30;93.30;;;;;;5050409;28;20339;-57
2022/05/29 00:49:20;;;;;;;13.20;1.85;;;11.20;93.00;;;;;;4697714;28;10000614;-58
2022/05/29 00:51:53;;;;;;;2.75;0.82;;;11.20;92.90;;;;;;5048371;28;20080;-57
2022/05/29 00:54:20;;;;;;;5.30;1.23;;;11.10;93.20;;;;;;5080317;28;20143;-59
2022/05/29 00:56:47;;;;;;;5.35;1.15;;;11.00;93.20;;;;;;5050160;28;20049;-57
2022/05/29 00:59:21;;;;;;;2.58;1.63;;;11.00;93.40;;;;;;5049866;28;20095;-56
2022/05/29 01:01:51;;;;;;;4.22;2.35;;;11.00;93.80;;;;;;5081041;28;20059;-59
2022/05/29 01:04:21;;;;;;;9.32;2.10;;;10.80;93.50;;;;;;5064678;28;20102;-58
2022/05/29 01:06:48;;;;;;;6.18;1.45;;;10.80;93.70;;;;;;5081705;28;20124;-58
2022/05/29 01:09:14;;;;;;;7.50;1.10;;;10.70;93.80;;;;;;5049112;28;20110;-59
2022/05/29 01:12:00;;;;;;;3.83;1.10;;;10.70;93.80;;;;;;5077952;28;20124;-57
2022/05/29 01:14:57;;;;;;;3.53;1.10;;;10.70;94.70;;;;;;5048951;28;20582;-58
2022/05/29 01:17:30;;;;;;;1.77;1.08;;;10.70;95.00;;;;;;5039365;28;20568;-58
2022/05/29 01:20:19;;;;;;;2.22;0.80;;;10.60;94.30;;;;;;5049564;28;20083;-57
2022/05/29 01:22:52;;;;;;;5.63;1.40;;;10.60;95.10;;;;;;5039327;28;20136;-57
2022/05/29 01:25:28;;;;;;;2.00;0.73;;;10.60;94.40;;;;;;5049227;28;20041;-58
2022/05/29 01:28:36;;;;;;;1.83;0.70;;;10.60;95.10;;;;;;5049714;28;20136;-57
2022/05/29 01:31:06;;;;;;;1.15;0.90;;;10.70;95.60;;;;;;5038586;28;20087;-56
2022/05/29 01:33:49;;;;;;;7.32;1.73;;;10.70;94.80;;;;;;5080566;28;20574;-59
2022/05/29 01:36:47;;;;;;;4.38;1.13;;;10.70;96.10;;;;;;5063838;28;20076;-53
2022/05/29 01:39:32;;;;;;;4.25;1.00;;;10.70;96.20;;;;;;5062782;28;20182;-53
2022/05/29 01:42:12;;;;;;;2.00;0.68;;;10.70;96.30;;;;;;5063231;28;20053;-57
2022/05/29 01:44:41;;;;;;;8.65;1.05;;;10.80;95.70;;;;;;5028283;28;20077;-57
2022/05/29 01:47:18;;;;;;;6.53;1.33;;;10.80;95.90;;;;;;5045736;28;20077;-58
2022/05/29 01:49:50;;;;;;;4.03;1.25;;;10.80;95.80;;;;;;5029357;28;20095;-55
2022/05/29 01:52:30;;;;;;;1.52;0.70;;;10.80;96.00;;;;;;5047401;28;20093;-58
2022/05/29 01:55:07;;;;;;;3.30;0.98;;;10.80;95.90;;;;;;5042661;28;20127;-57
2022/05/29 01:57:39;;;;;;;2.90;0.80;;;10.70;95.90;;;;;;5044788;28;20527;-57
2022/05/29 02:00:21;;;;;;;1.27;0.80;;;10.70;96.40;;;;;;5044250;28;20049;-58
2022/05/29 02:02:52;;;;;;;3.97;1.48;;;10.60;96.40;;;;;;5046173;28;20079;-56
2022/05/29 02:05:24;;;;;;;1.35;0.70;;;10.60;96.80;;;;;;5060526;28;20057;-58
2022/05/29 02:08:02;;;;;;;6.00;1.00;;;10.60;96.90;;;;;;5030124;28;20132;-58
2022/05/29 02:10:50;;;;;;;6.25;1.58;;;10.60;96.60;;;;;;5042648;28;20089;-56
2022/05/29 02:13:39;;;;;;;5.05;1.00;;;10.50;97.50;;;;;;5047196;28;20144;-55
2022/05/29 02:16:09;;;;;;;3.78;1.13;;;10.50;98.20;;;;;;5041145;28;20098;-57
2022/05/29 02:18:40;;;;;;;10.05;1.85;;;10.40;97.20;;;;;;5079555;28;20492;-57
2022/05/29 02:21:27;;;;;;;7.30;2.47;;;10.40;97.30;;;;;;5079623;28;20127;-58
2022/05/29 02:23:55;;;;;;;7.60;1.17;;;10.40;97.30;;;;;;5074555;28;20127;-58
2022/05/29 02:26:24;;;;;;;2.20;0.90;;;10.30;97.50;;;;;;5063789;28;20068;-57
2022/05/29 02:28:53;;;;;;;3.53;0.90;;;10.30;97.60;;;;;;5063115;28;20084;-58
2022/05/29 02:31:50;;;;;;;5.07;1.38;;;10.30;97.70;;;;;;5063289;28;20072;-58
2022/05/29 02:34:50;;;;;;;2.53;0.98;;;10.30;98.30;;;;;;5019092;28;20072;-58
2022/05/29 02:37:32;;;;;;;3.80;0.93;;;10.30;98.90;;;;;;5074995;28;20127;-56
2022/05/29 02:40:02;;;;;;;4.15;0.90;;;10.20;98.90;;;;;;5080164;28;20552;-55
2022/05/29 02:42:41;;;;;;;4.10;1.08;;;10.10;98.60;;;;;;5047779;28;20049;-58
2022/05/29 02:45:15;;;;;;;4.45;2.80;;;10.00;99.40;;;;;;5048153;28;20072;-58
2022/05/29 02:47:41;;;;;;;;;;;9.90;99.20;;;;;;5080321;28;20076;-56
2022/05/29 02:50:25;;;;;;;4.68;0.70;;;9.70;99.90;;;;;;5047895;28;19967;-58
2022/05/29 02:52:52;;;;;;;4.18;1.20;;;9.70;99.90;;;;;;5078984;28;20124;-59
2022/05/29 02:55:21;;;;;;;4.75;1.38;;;9.70;99.60;;;;;;5080043;28;20062;-58
2022/05/29 02:57:49;;;;;;;7.25;1.35;;;9.70;99.70;;;;;;5079589;28;20143;-65
2022/05/29 03:00:16;;;;;;;5.85;1.08;;;9.80;99.70;;;;;;5079850;28;20083;-57
2022/05/29 03:03:07;;;;;;;4.95;1.10;;;9.80;99.80;;;;;;5079616;28;20080;-57
2022/05/29 03:05:48;;;;;;;3.20;1.05;;;9.80;99.90;;;;;;5046527;28;20076;-55
2022/05/29 03:08:58;;;;;;;5.72;1.13;;;9.70;99.90;;;;;;5047805;28;20458;-55
2022/05/29 03:11:39;;;;;;;7.63;1.27;;;9.80;99.90;;;;;;5049626;28;20487;-58
2022/05/29 03:14:11;;;;;;;4.18;0.88;;;9.70;99.90;;;;;;5047387;28;20099;-58
2022/05/29 03:17:06;;;;;;;4.45;1.10;;;9.80;99.90;;;;;;5079135;28;20073;-58
2022/05/29 03:20:03;;;;;;;4.07;0.90;;;9.70;99.90;;;;;;5051069;28;20212;-55
2022/05/29 03:22:35;;;;;;;4.13;0.95;;;9.70;99.90;;;;;;5083721;28;20341;-57
2022/05/29 03:25:16;;;;;;;2.15;1.20;;;9.70;99.90;;;;;;5051577;28;20057;-57
2022/05/29 03:27:45;;;;;;;5.88;1.25;;;9.70;99.90;;;;;;5065898;28;20083;-57
2022/05/29 03:30:16;;;;;;;6.72;0.95;;;9.70;99.90;;;;;;5066617;28;20179;-58
2022/05/29 03:32:43;;;;;;;2.38;0.93;;;9.70;99.90;;;;;;5083364;28;20061;-57
2022/05/29 03:35:27;;;;;;;3.97;1.30;;;9.60;99.90;;;;;;5050027;28;20045;-57
2022/05/29 03:37:54;;;;;;;5.50;1.57;;;9.60;99.90;;;;;;5051514;28;20550;-57
2022/05/29 03:40:21;;;;;;;5.88;1.50;;;9.60;99.90;;;;;;5051233;28;20049;-59
2022/05/29 03:42:48;;;;;;;8.07;1.65;;;9.50;99.90;;;;;;5051278;28;20620;-57
2022/05/29 03:45:15;;;;;;;6.00;1.45;;;9.50;99.90;;;;;;5051085;28;20055;-58
2022/05/29 03:47:41;;;;;;;5.30;1.30;;;9.40;99.90;;;;;;5051294;28;20088;-58
2022/05/29 03:50:14;;;;;;;9.68;1.55;;;9.50;99.90;;;;;;5050863;28;20045;-58
2022/05/29 03:52:41;;;;;;;7.63;1.13;;;9.50;99.90;;;;;;5050180;28;20316;-60
2022/05/29 03:55:08;;;;;;;7.68;1.20;;;9.50;99.90;;;;;;5082983;28;20653;-57
2022/05/29 03:57:35;;;;;;;9.70;1.90;;;9.50;99.90;;;;;;5051233;28;20083;-58
2022/05/29 04:00:04;;;;;;;9.88;1.70;;;9.50;99.90;;;;;;5050886;28;20132;-57
2022/05/29 04:02:31;;;;;;;7.40;1.58;;;9.50;99.90;;;;;;5047498;28;20156;-58
2022/05/29 04:04:58;;;;;;;6.00;0.95;;;9.50;99.90;;;;;;5035531;28;20144;-57
2022/05/29 04:12:03;;;;;;;12.18;1.58;;;9.50;99.90;;;;;;5050764;28;20433;-58
2022/05/29 04:12:57;;;;;;;3.55;1.20;;;9.50;99.90;;;;;;5050701;28;20103;-58
2022/05/29 04:15:24;;;;;;;9.05;1.33;;;9.50;99.90;;;;;;5082643;28;20198;-58
2022/05/29 04:17:51;;;;;;;1.83;1.00;;;9.50;99.90;;;;;;5050715;28;20847;-57
2022/05/29 04:20:18;;;;;;;9.07;1.35;;;9.50;99.90;;;;;;5050851;28;20144;-58
2022/05/29 04:22:45;;;;;;;12.35;1.67;;;9.40;99.90;;;;;;5050582;28;20049;-59
2022/05/29 04:25:12;;;;;;;8.80;1.83;;;9.40;99.90;;;;;;5050818;28;20091;-56
2022/05/29 04:27:38;;;;;;;2.75;0.95;;;9.30;99.90;;;;;;5050225;28;20084;-55
2022/05/29 04:30:07;;;;;;;5.63;1.20;;;9.30;99.90;;;;;;5050228;28;20144;-56
2022/05/29 04:35:19;;;;;;;7.10;1.10;;;9.40;99.90;;;;;;5050969;28;20080;-57
2022/05/29 04:37:45;;;;;;;2.63;1.05;;;9.30;99.90;;;;;;5049665;28;20088;-58
2022/05/29 04:40:12;;;;;;;4.28;1.15;;;9.40;99.90;;;;;;5050890;28;20080;-58
2022/05/29 04:42:39;;;;;;;14.18;2.88;;;9.40;99.90;;;;;;5050296;28;20069;-58
2022/05/29 04:45:06;;;;;;;6.72;0.93;;;9.50;99.90;;;;;;5050664;28;20083;-60
2022/05/29 04:47:33;;;;;;;14.27;1.73;;;9.50;99.90;;;;;;5049182;28;20131;-59
2022/05/29 04:50:00;;;;;;;7.55;1.30;;;9.50;99.90;;;;;;5050813;28;20084;-57
2022/05/29 04:52:29;;;;;;;10.43;2.35;;;9.50;99.90;;;;;;5050111;28;20045;-58
2022/05/29 04:54:56;;;;;;;2.88;1.25;;;9.50;99.90;;;;;;5050334;28;20076;-56
2022/05/29 04:57:23;;;;;;;4.68;1.27;;;9.60;99.90;;;;;;5050049;28;20075;-60
2022/05/29 04:59:50;;;;;;;5.50;1.73;;;9.60;99.90;;;;;;5050644;28;20151;-58
2022/05/29 05:02:17;;;;;;;5.25;1.58;;;9.60;99.90;;;;;;5049757;28;20463;-57
2022/05/29 05:04:43;;;;;;;6.32;1.40;;;9.60;99.90;;;;;;5050371;28;20072;-57
2022/05/29 05:07:10;;;;;;;5.90;1.40;;;9.70;99.90;;;;;;5050187;28;20079;-57
2022/05/29 05:09:37;;;;;;;5.53;1.20;;;9.70;99.90;;;;;;5049724;28;20479;-57
2022/05/29 05:12:04;;;;;;;8.10;1.30;;;9.80;99.90;;;;;;5050440;28;20045;-57
2022/05/29 05:14:33;;;;;;;3.72;0.93;;;9.90;99.90;;;;;;5049619;28;20111;-58
2022/05/29 05:16:59;;;;;;;4.72;1.02;;;10.00;99.90;;;;;;5081720;28;20080;-57
2022/05/29 05:19:26;;;;;;;5.75;1.70;;;10.00;99.90;;;;;;5049801;28;20088;-60
2022/05/29 05:21:53;;;;;;;12.90;3.10;;;10.10;99.90;;;;;;5049956;28;20084;-58
2022/05/29 05:24:20;;;;;;;5.57;1.23;;;10.20;99.90;;;;;;5049641;28;20076;-56
2022/05/29 05:26:46;;;;;;;2.92;1.20;;;10.30;99.90;;;;;;5050056;28;20240;-58
2022/05/29 05:29:14;;;;;;;4.40;1.33;;;10.30;99.90;;;;;;5049366;28;20633;-57
2022/05/29 05:31:41;;;;;;;3.20;1.00;;;10.30;99.90;;;;;;5049436;28;20091;-58
2022/05/29 05:34:08;;;;;;;6.95;1.90;;;10.30;99.90;;;;;;5049198;28;20064;-57
2022/05/29 05:36:34;;;;;;;8.48;1.35;;;10.40;99.90;;;;;;5049617;28;20572;-58
2022/05/29 05:39:02;;;;;;;7.18;1.10;;;10.40;99.90;;;;;;5049091;28;20094;-57
2022/05/29 05:41:28;;;;;;;4.88;1.02;;;10.30;99.90;;;;;;5048591;28;20098;-57
2022/05/29 05:43:55;;;;;;;4.20;1.15;;;10.40;99.90;;;;;;5049079;28;20568;-58
2022/05/29 05:46:22;;;;;;;6.07;1.30;;;10.50;99.90;;;;;;5049458;28;20131;-57
2022/05/29 05:48:49;;;;;;;5.65;1.60;;;10.60;99.90;;;;;;5049395;28;20136;-57
2022/05/29 05:51:16;;;;;;;5.40;1.23;;;10.60;99.90;;;;;;5081093;28;20515;-58
2022/05/29 05:53:43;;;;;;;5.88;1.73;;;10.60;99.90;;;;;;5048885;28;20492;-58
2022/05/29 05:56:11;;;;;;;7.82;1.52;;;10.70;99.90;;;;;;5049299;28;20131;-58
2022/05/29 05:58:39;;;;;;;4.47;1.00;;;10.70;99.90;;;;;;5049240;28;20465;-56
2022/05/29 06:01:09;;;;;;;3.33;0.85;;;10.70;99.90;;;;;;5048444;28;20041;-58
2022/05/29 06:03:36;;;;;;;4.50;1.20;;;10.80;99.90;;;;;;5048950;28;20124;-57
2022/05/29 06:06:03;;;;;;;6.15;1.52;;;10.80;99.90;;;;;;5048476;28;20087;-59
2022/05/29 06:08:30;;;;;;;5.97;1.35;;;10.80;99.90;;;;;;5049203;28;20072;-58
2022/05/29 06:10:56;;;;;;;10.13;1.25;;;10.80;99.90;;;;;;5048666;28;20145;-57
2022/05/29 06:13:23;;;;;;;3.92;1.13;;;10.90;99.90;;;;;;5049068;28;20449;-59
2022/05/29 06:15:50;;;;;;;8.73;1.95;;;10.90;99.90;;;;;;5048429;28;20713;-59
2022/05/29 06:18:17;;;;;;;2.10;0.80;;;11.00;99.90;;;;;;5048703;28;20076;-57
2022/05/29 06:20:44;;;;;;;3.25;1.15;;;11.00;99.90;;;;;;5048417;28;20103;-57
2022/05/29 06:23:11;;;;;;;9.00;1.55;;;11.00;99.90;;;;;;5080568;28;20080;-58
2022/05/29 06:25:39;;;;;;;7.88;1.27;;;11.00;99.90;;;;;;5048514;28;20055;-59
2022/05/29 06:28:06;;;;;;;5.85;1.00;;;11.10;99.90;;;;;;5048840;28;20132;-59
2022/05/29 06:30:33;;;;;;;6.10;1.15;;;11.10;99.90;;;;;;5048186;28;20139;-58
2022/05/29 06:33:01;;;;;;;2.60;1.10;;;11.10;99.90;;;;;;5048425;28;20312;-56
2022/05/29 06:35:28;;;;;;;4.32;1.23;;;11.20;99.90;;;;;;5048368;28;20056;-57
2022/05/29 06:37:55;;;;;;;5.28;1.15;;;11.20;99.90;;;;;;5048497;28;20077;-58
2022/05/29 06:40:22;;;;;;;4.25;1.30;;;11.20;99.90;;;;;;5048210;28;20053;-59
2022/05/29 06:42:48;;;;;;;5.72;1.25;;;11.10;99.90;;;;;;5048429;28;20088;-59
2022/05/29 06:45:15;;;;;;;2.83;1.08;;;11.20;99.90;;;;;;5048137;28;20124;-58
2022/05/29 06:47:42;;;;;;;6.95;1.02;;;11.20;99.90;;;;;;5047805;28;20041;-58
2022/05/29 06:50:10;;;;;;;3.78;1.00;;;11.30;99.90;;;;;;5080312;28;20045;-58
2022/05/29 06:52:36;;;;;;;2.90;1.00;;;11.20;99.90;;;;;;5047314;28;20045;-55
2022/05/29 06:55:04;;;;;;;5.28;1.20;;;11.30;99.90;;;;;;5048007;28;20097;-57
2022/05/29 06:57:37;;;;;;;5.20;0.98;;;11.30;99.90;;;;;;5047486;28;20136;-55
2022/05/29 07:08:30;;;;;;;3.45;0.95;;;11.70;99.90;;;;;;5047955;28;20084;-58
2022/05/29 07:11:00;;;;;;;6.45;1.15;;;11.80;99.90;;;;;;5047992;28;20133;-59
2022/05/29 07:13:28;;;;;;;6.38;1.10;;;11.80;99.90;;;;;;5046347;28;20091;-57
2022/05/29 07:15:55;;;;;;;3.90;1.08;;;11.90;99.90;;;;;;5079765;28;20213;-60
2022/05/29 07:18:22;;;;;;;5.93;1.23;;;11.90;99.90;;;;;;5047388;28;20500;-59
2022/05/29 07:20:48;;;;;;;5.93;1.10;;;12.00;99.80;;;;;;5048119;28;20103;-58
2022/05/29 07:23:15;;;;;;;7.40;1.40;;;12.00;99.90;;;;;;5047655;28;20128;-59
2022/05/29 07:25:42;;;;;;;5.00;1.23;;;12.00;99.70;;;;;;5047868;28;20475;-58
2022/05/29 07:28:09;;;;;;;1.85;0.90;;;12.00;99.80;;;;;;5047671;28;20522;-58
2022/05/29 07:30:36;;;;;;;6.95;1.00;;;12.10;99.60;;;;;;5047738;28;20081;-60
2022/05/29 07:33:02;;;;;;;4.57;1.00;;;12.10;99.70;;;;;;5047367;28;20080;-58
2022/05/29 07:35:29;;;;;;;6.05;1.40;;;12.10;99.80;;;;;;5047674;28;20128;-60
2022/05/29 07:37:56;;;;;;;2.20;1.17;;;12.30;99.80;;;;;;5047318;28;20506;-58
2022/05/29 07:40:24;;;;;;;8.02;1.50;;;12.40;99.50;;;;;;5047991;28;20080;-58
2022/05/29 07:45:36;;;;;;;5.53;0.88;;;12.50;99.40;;;;;;5047227;28;20067;-61
2022/05/29 07:48:03;;;;;;;8.05;1.42;;;12.50;99.20;;;;;;5078642;28;20075;-58
2022/05/29 07:50:30;;;;;;;4.60;1.67;;;12.50;99.20;;;;;;5046625;28;20109;-59
2022/05/29 07:52:57;;;;;;;8.82;1.52;;;12.50;98.80;;;;;;5046822;28;20555;-59
2022/05/29 07:55:24;;;;;;;10.82;1.40;;;12.40;99.10;;;;;;5046494;28;20132;-58
2022/05/29 07:57:51;;;;;;;7.20;1.13;;;12.50;99.20;;;;;;5051709;28;20215;-58
2022/05/29 08:00:18;;;;;;;5.95;1.42;;;12.60;99.00;;;;;;5047179;28;20076;-58
2022/05/29 08:02:45;;;;;;;7.32;1.30;;;12.60;99.00;;;;;;5064959;28;20124;-58
2022/05/29 08:05:13;;;;;;;2.47;0.95;;;12.70;98.80;;;;;;5047612;28;20045;-59
2022/05/29 08:07:40;;;;;;;5.10;1.15;;;12.70;98.80;;;;;;5050547;28;20424;-58
2022/05/29 08:10:08;;;;;;;6.97;1.20;;;12.70;98.70;;;;;;5050336;28;20084;-59
2022/05/29 08:12:34;;;;;;;3.22;1.13;;;12.80;98.60;;;;;;5050067;28;20072;-59
2022/05/29 08:15:01;;;;;;;2.90;1.20;;;12.90;98.90;;;;;;5049726;28;20176;-59
2022/05/29 08:17:28;;;;;;;6.32;1.48;;;12.90;98.70;;;;;;5050567;28;20045;-59
2022/05/29 08:19:55;;;;;;;5.13;0.95;;;12.90;98.50;;;;;;5050034;28;20197;-58
2022/05/29 08:22:22;;;;;;;9.45;1.30;;;12.90;98.70;;;;;;5050207;28;20072;-58
2022/05/29 08:30:38;;;;;;;9.55;1.52;;;12.90;98.90;;;;;;5042237;28;20048;-59
2022/05/29 08:33:06;;;;;;;3.05;1.05;;;13.10;98.90;;;;;;5047052;28;20052;-59
2022/05/29 08:35:34;;;;;;;4.90;1.00;;;13.00;98.60;;;;;;5046767;28;20287;-59
2022/05/29 08:38:01;;;;;;;5.85;2.92;;;13.00;98.50;;;;;;5046313;28;20088;-57
2022/05/29 08:40:28;;;;;;;5.10;1.63;;;13.10;98.90;;;;;;5045436;28;20118;-61
2022/05/29 08:42:55;;;;;;;5.57;1.10;;;13.20;98.90;;;;;;5045744;28;20139;-59
2022/05/29 08:45:22;;;;;;;8.25;2.53;;;13.20;98.60;;;;;;5046514;28;20132;-61
2022/05/29 08:47:49;;;;;;;6.28;1.33;;;13.20;98.30;;;;;;5046723;28;20084;-60
2022/05/29 08:50:25;;;;;;;2.60;1.15;;;13.20;98.20;;;;;;5046024;28;20148;-59
2022/05/29 08:53:01;;;;;;;4.72;1.00;;;13.00;98.30;;;;;;5044561;28;20128;-60
2022/05/29 08:55:45;;;;;;;5.97;1.77;;;13.20;98.40;;;;;;5043712;28;20083;-59
2022/05/29 08:58:15;;;;;;;4.50;1.40;;;13.30;98.00;;;;;;5045179;28;20515;-59
2022/05/29 09:00:52;;;;;;;5.00;1.10;;;13.30;98.00;;;;;;5043818;28;20500;-60
2022/05/29 09:03:28;;;;;;;5.28;1.35;;;13.40;97.70;;;;;;5045196;28;20095;-61
2022/05/29 09:06:00;;;;;;;10.43;2.40;;;13.50;97.70;;;;;;5045221;28;20060;-59
2022/05/29 09:08:51;;;;;;;6.07;1.67;;;13.60;97.90;;;;;;5045832;28;20132;-60
2022/05/29 09:11:32;;;;;;;4.95;1.48;;;13.70;97.20;;;;;;5056820;28;20080;-63
2022/05/29 09:14:15;;;;;;;4.45;1.27;;;13.60;97.30;;;;;;5045755;28;20053;-57
2022/05/29 09:16:47;;;;;;;6.03;1.20;;;13.60;96.90;;;;;;5044442;28;20068;-61
2022/05/29 09:19:37;;;;;;;4.13;1.15;;;13.50;96.90;;;;;;5042472;28;20077;-60
2022/05/29 09:22:27;;;;;;;9.95;1.10;;;13.50;97.40;;;;;;5043540;28;20424;-60
2022/05/29 09:25:06;;;;;;;7.53;1.30;;;13.60;97.50;;;;;;4697316;28;10000283;-60
2022/05/29 09:27:34;;;;;;;4.57;1.02;;;13.70;96.40;;;;;;5045153;28;20140;-59
2022/05/29 09:30:01;;;;;;;4.90;0.90;;;13.90;96.60;;;;;;5045006;28;20143;-59
2022/05/29 09:32:30;;;;;;;2.33;0.80;;;14.10;95.90;;;;;;5045366;28;20654;-60
2022/05/29 09:35:07;;;;;;;2.30;0.70;;;14.40;95.50;;;;;;5044723;28;20427;-58
2022/05/29 09:37:49;;;;;;;3.67;1.33;;;14.50;94.90;;;;;;5040169;28;20092;-58
2022/05/29 09:40:26;;;;;;;3.58;0.80;;;14.70;93.80;;;;;;5044554;28;20079;-62
2022/05/29 09:42:54;;;;;;;2.20;0.70;;;14.60;94.30;;;;;;5044704;28;20118;-58
2022/05/29 09:45:26;;;;;;;2.58;0.88;;;14.60;94.30;;;;;;5045361;28;20052;-56
2022/05/29 09:50:46;;;;;;;1.48;0.80;;;14.60;94.60;;;;;;5044699;28;20044;-59
2022/05/29 09:53:16;;;;;;;1.33;0.60;;;14.70;94.40;;;;;;5072214;28;20506;-58
2022/05/29 09:55:51;;;;;;;3.70;0.60;;;14.80;92.80;;;;;;5044572;28;20060;-57
2022/05/29 09:58:35;;;;;;;2.15;0.57;;;14.70;93.00;;;;;;5043576;28;20075;-60
2022/05/29 10:01:03;;;;;;;4.88;0.68;;;14.80;93.40;;;;;;5043430;28;20060;-58
2022/05/29 10:03:49;;;;;;;1.33;0.40;;;15.10;92.90;;;;;;5044568;28;20049;-57
2022/05/29 10:06:30;;;;;;;3.92;0.75;;;15.20;90.50;;;;;;5044449;28;20060;-59
2022/05/29 10:09:18;;;;;;;1.10;0.32;;;15.40;91.90;;;;;;5042727;28;20483;-58
2022/05/29 10:11:53;;;;;;;1.55;0.47;;;15.60;88.90;;;;;;5056250;28;20453;-59
2022/05/29 10:14:40;;;;;;;5.40;0.90;;;16.00;90.90;;;;;;5043483;28;20069;-57
2022/05/29 10:17:15;;;;;;;1.75;0.80;;;16.60;89.00;;;;;;5044337;28;20530;-58
2022/05/29 10:19:44;;;;;;;2.03;0.75;;;17.10;89.30;;;;;;5043214;28;20138;-59
2022/05/29 10:22:31;;;;;;;4.10;0.50;;;17.40;90.00;;;;;;5044209;28;20111;-57
2022/05/29 10:24:58;;;;;;;3.92;0.55;;;17.60;85.20;;;;;;5044912;28;20045;-59
2022/05/29 10:27:33;;;;;;;0.90;0.30;;;17.70;86.80;;;;;;5043845;28;20127;-58
2022/05/29 10:30:09;;;;;;;0.55;0.30;;;17.70;82.30;;;;;;5042987;28;20187;-62
2022/05/29 10:32:37;;;;;;;5.47;0.60;;;17.40;85.20;;;;;;5075359;28;20132;-59
2022/05/29 10:35:30;;;;;;;2.55;0.55;;;17.10;84.80;;;;;;5042309;28;20048;-59
2022/05/29 10:37:57;;;;;;;4.63;0.65;;;17.10;81.10;;;;;;5064874;28;20167;-57
2022/05/29 10:40:29;;;;;;;3.78;0.65;;;16.90;85.00;;;;;;5059577;28;20075;-58
2022/05/29 10:43:00;;;;;;;1.80;0.60;;;16.70;82.80;;;;;;5041776;28;20053;-58
2022/05/29 10:45:46;;;;;;;4.00;0.60;;;16.50;84.20;;;;;;5052447;28;20055;-59
2022/05/29 10:48:44;;;;;;;4.03;0.70;;;16.30;81.30;;;;;;5052405;28;20052;-58
2022/05/29 10:51:29;;;;;;;2.58;0.60;;;16.30;82.40;;;;;;5044079;28;20088;-59
2022/05/29 10:54:34;;;;;;;1.73;0.60;;;16.20;85.70;;;;;;5043766;28;20053;-57
2022/05/29 10:57:06;;;;;;;1.02;0.73;;;16.30;82.40;;;;;;5041195;28;20052;-57
2022/05/29 10:59:58;;;;;;;3.47;0.75;;;16.50;85.00;;;;;;5043649;28;20088;-57
2022/05/29 11:05:43;;;;;;;;;;;16.40;81.60;;;;;;5030397;28;20431;-58
2022/05/29 11:08:30;;;;;;;1.05;0.52;;;16.20;79.60;;;;;;5044168;28;20328;-59
2022/05/29 11:11:02;;;;;;;0.73;0.43;;;16.10;84.60;;;;;;5037499;28;20091;-58
2022/05/29 11:13:48;;;;;;;1.67;0.70;;;16.10;83.90;;;;;;5042356;28;20053;-57
2022/05/29 11:16:30;;;;;;;2.13;0.60;;;16.20;85.00;;;;;;5041913;28;20049;-57
2022/05/29 11:19:17;;;;;;;0.65;0.45;;;16.10;81.60;;;;;;5042462;28;20060;-56
2022/05/29 11:22:13;;;;;;;7.40;0.80;;;16.00;82.20;;;;;;5040040;28;20059;-56
2022/05/29 11:24:59;;;;;;;2.63;0.65;;;16.10;82.30;;;;;;5028679;28;20053;-55
2022/05/29 11:27:54;;;;;;;1.60;0.60;;;16.20;82.10;;;;;;5058199;28;20052;-58
2022/05/29 11:30:58;;;;;;;2.75;0.52;;;16.20;81.20;;;;;;5040983;28;20071;-58
2022/05/29 11:33:50;;;;;;;1.08;0.50;;;16.20;81.50;;;;;;5041182;28;20118;-57
2022/05/29 11:36:16;;;;;;;0.88;0.40;;;16.20;81.50;;;;;;5042344;28;20053;-57
2022/05/29 11:38:52;;;;;;;3.95;0.60;;;16.20;83.70;;;;;;5043039;28;20515;-58
2022/05/29 11:41:38;;;;;;;2.00;0.60;;;16.30;82.50;;;;;;5044789;28;20080;-57
2022/05/29 11:44:27;;;;;;;2.00;0.70;;;16.50;81.80;;;;;;5042075;28;20060;-57
2022/05/29 11:51:07;;;;;;;4.00;0.70;;;16.60;79.70;;;;;;5045242;28;20156;-56
2022/05/29 11:53:23;;;;;;;1.38;0.50;;;16.60;80.80;;;;;;5053797;28;20083;-55
2022/05/29 11:55:50;;;;;;;1.88;0.77;;;16.70;80.20;;;;;;5047515;28;20063;-60
2022/05/29 11:58:40;;;;;;;0.57;0.30;;;16.70;81.70;;;;;;5079669;28;20080;-57
2022/05/29 12:01:18;;;;;;;4.00;0.70;;;16.60;77.00;;;;;;5061405;28;20080;-56
2022/05/29 12:04:01;;;;;;;2.72;1.30;;;16.50;80.50;;;;;;5045877;28;20479;-57
2022/05/29 12:06:46;;;;;;;3.30;0.80;;;16.70;81.40;;;;;;5043996;28;20688;-56
2022/05/29 12:09:17;;;;;;;1.65;0.57;;;16.90;79.40;;;;;;5046386;28;20056;-57
2022/05/29 12:12:07;;;;;;;1.55;0.50;;;17.10;81.50;;;;;;5047188;28;20170;-57
2022/05/29 12:14:39;;;;;;;2.60;0.60;;;17.20;79.40;;;;;;5041928;28;20080;-57
2022/05/29 12:17:11;;;;;;;2.85;0.73;;;17.30;80.40;;;;;;5045493;28;20049;-55
2022/05/29 12:19:47;;;;;;;1.88;0.50;;;17.30;79.80;;;;;;5046464;28;20037;-57
2022/05/29 12:22:15;;;;;;;2.42;0.57;;;17.30;79.60;;;;;;5046672;28;20091;-57
2022/05/29 12:24:43;;;;;;;1.27;0.50;;;17.40;78.20;;;;;;5079235;28;20178;-57
2022/05/29 12:27:14;;;;;;;1.20;0.55;;;17.40;76.20;;;;;;5061942;28;20139;-56
2022/05/29 12:30:07;;;;;;;1.70;0.60;;;17.40;78.00;;;;;;5046739;28;20468;-54
2022/05/29 12:32:35;;;;;;;2.67;0.63;;;17.30;74.20;;;;;;5060926;28;20081;-57
2022/05/29 12:35:08;;;;;;;4.32;0.73;;;17.60;77.90;;;;;;5046569;28;20064;-57
2022/05/29 12:38:07;;;;;;;5.18;0.90;;;17.80;74.90;;;;;;5042190;28;20060;-57
2022/05/29 12:41:01;;;;;;;5.00;0.95;;;18.00;71.70;;;;;;5045070;28;20133;-55
2022/05/29 12:43:58;;;;;;;4.50;1.08;;;17.80;73.00;;;;;;5047017;28;20123;-54
2022/05/29 12:46:37;;;;;;;0.73;0.40;;;17.60;72.40;;;;;;5069433;28;20045;-58
2022/05/29 12:49:31;;;;;;;2.80;0.60;;;17.50;75.60;;;;;;5043311;28;20045;-56
2022/05/29 12:52:18;;;;;;;3.13;0.60;;;17.30;73.00;;;;;;5044477;28;20573;-56
2022/05/29 12:54:59;;;;;;;2.17;0.80;;;17.30;72.40;;;;;;5045292;28;20266;-57
2022/05/29 12:57:39;;;;;;;1.02;0.60;;;17.30;75.50;;;;;;5042319;28;20045;-58
2022/05/29 13:00:43;;;;;;;1.88;0.90;;;17.30;74.00;;;;;;5045963;28;20486;-57
2022/05/29 13:03:28;;;;;;;1.55;0.60;;;17.40;73.80;;;;;;5046380;28;20056;-58
2022/05/29 13:06:31;;;;;;;3.20;1.20;;;17.60;73.70;;;;;;5046825;28;20057;-59
2022/05/29 13:09:35;;;;;;;1.33;0.85;;;17.90;71.20;;;;;;5029519;28;20095;-57
2022/05/29 13:12:05;;;;;;;4.57;0.80;;;17.90;73.60;;;;;;5042530;28;20472;-58
2022/05/29 13:14:32;;;;;;;1.73;0.77;;;17.80;75.20;;;;;;5044839;28;20128;-57
2022/05/29 13:17:08;;;;;;;1.85;0.55;;;17.60;76.10;;;;;;5046277;28;20143;-57
2022/05/29 13:19:55;;;;;;;4.07;0.70;;;17.40;73.80;;;;;;5045394;28;20048;-57
2022/05/29 13:22:42;;;;;;;2.13;0.90;;;17.10;74.10;;;;;;5044163;28;20044;-58
2022/05/29 13:25:09;;;;;;;4.85;0.63;;;16.90;76.40;;;;;;5038053;28;20044;-55
2022/05/29 13:27:36;;;;;;;2.85;0.80;;;16.70;77.50;;;;;;5047618;28;20127;-57
2022/05/29 13:30:05;;;;;;;3.90;0.70;;;16.60;79.40;;;;;;5077134;28;20068;-59
2022/05/29 13:32:35;;;;;;;1.40;0.75;;;16.40;79.60;;;;;;5043453;28;20075;-53
2022/05/29 13:35:04;;;;;;;3.53;0.73;;;16.40;80.50;;;;;;5043492;28;20114;-57
2022/05/29 13:37:39;;;;;;;4.88;0.82;;;16.30;81.40;;;;;;5043256;28;20136;-56
2022/05/29 13:40:29;;;;;;;2.20;1.10;;;16.30;82.30;;;;;;5044016;28;20087;-57
2022/05/29 13:43:19;;;;;;;2.63;1.15;;;16.20;83.30;;;;;;5045422;28;20051;-55
2022/05/29 13:46:04;;;;;;;5.78;1.65;;;16.20;84.90;;;;;;5039451;28;20187;-57
2022/05/29 13:48:31;;;;;;;2.13;0.80;;;16.20;84.50;;;;;;5043653;28;20060;-55
2022/05/29 13:51:11;;;;;;;3.33;0.73;;;16.30;84.10;;;;;;5043713;28;20049;-56
2022/05/29 13:53:55;;;;;;;3.60;0.93;;;16.40;85.10;;;;;;5043760;28;20045;-57
2022/05/29 13:56:24;;;;;;;5.90;1.08;;;16.60;82.10;;;;;;5042142;28;20053;-55